Time;durP1;ratioP1;P1;durP2;ratioP2;P2;SDS_P1;SDS_P2;PMS_P1;PMS_P2;Temp;Humidity;BMP_temperature;BMP_pressure;BME280_temperature;BME280_humidity;BME280_pressure;Samples;Min_cycle;Max_cycle;Signal;HPM_P1;HPM_P2
2024/02/15 00:01:15;;;;;;;;;5.33;5.33;;;;;;;;5040948;28;45505;-78
2024/02/15 00:03:40;;;;;;;;;5.33;5.33;;;;;;;;5041343;28;45343;-78
2024/02/15 00:06:05;;;;;;;;;6.67;6.67;;;;;;;;5041536;28;45299;-78
2024/02/15 00:08:31;;;;;;;;;5.33;5.33;;;;;;;;5041426;28;45295;-79
2024/02/15 00:10:56;;;;;;;;;5.67;5.33;;;;;;;;5039714;28;48291;-79
2024/02/15 00:13:22;;;;;;;;;4.00;4.00;;;;;;;;5039401;28;45341;-78
2024/02/15 00:15:48;;;;;;;;;5.33;5.00;;;;;;;;5040261;28;45665;-77
2024/02/15 00:18:13;;;;;;;;;5.33;5.33;;;;;;;;5040002;28;45536;-77
2024/02/15 00:20:38;;;;;;;;;3.67;3.33;;;;;;;;5039125;28;48726;-79
2024/02/15 00:23:04;;;;;;;;;4.33;4.33;;;;;;;;5041037;28;45329;-79
2024/02/15 00:25:30;;;;;;;;;4.33;4.33;;;;;;;;5040515;28;45225;-78
2024/02/15 00:27:55;;;;;;;;;4.00;3.00;;;;;;;;5038961;28;46489;-78
2024/02/15 00:30:21;;;;;;;;;5.00;4.00;;;;;;;;5038236;28;47089;-79
2024/02/15 00:32:46;;;;;;;;;4.67;3.67;;;;;;;;5041029;28;45358;-79
2024/02/15 00:35:13;;;;;;;;;2.33;2.33;;;;;;;;5041026;28;45256;-79
2024/02/15 00:37:38;;;;;;;;;4.33;4.33;;;;;;;;5039536;28;46234;-79
2024/02/15 00:40:03;;;;;;;;;4.00;4.00;;;;;;;;5040669;28;45371;-79
2024/02/15 00:42:29;;;;;;;;;3.67;3.33;;;;;;;;5039374;28;45285;-79
2024/02/15 00:44:54;;;;;;;;;4.67;4.67;;;;;;;;5041180;28;45326;-77
2024/02/15 00:47:19;;;;;;;;;4.00;3.67;;;;;;;;5039411;28;47105;-77
2024/02/15 00:49:44;;;;;;;;;2.00;2.00;;;;;;;;5039093;28;46364;-78
2024/02/15 00:52:10;;;;;;;;;5.00;3.67;;;;;;;;5040551;28;45453;-78
2024/02/15 00:54:35;;;;;;;;;2.33;2.33;;;;;;;;5040747;28;45304;-78
2024/02/15 00:57:01;;;;;;;;;4.67;3.33;;;;;;;;5050441;28;45319;-78
2024/02/15 00:59:26;;;;;;;;;4.33;4.33;;;;;;;;5081020;27;46294;-78
2024/02/15 01:01:53;;;;;;;;;4.00;4.00;;;;;;;;5079338;28;45428;-78
2024/02/15 01:04:18;;;;;;;;;7.00;4.67;;;;;;;;5079381;28;45350;-79
2024/02/15 01:06:43;;;;;;;;;3.33;3.33;;;;;;;;5080921;27;45215;-79
2024/02/15 01:09:09;;;;;;;;;4.00;4.00;;;;;;;;5080958;27;45577;-79
2024/02/15 01:11:37;;;;;;;;;4.33;4.33;;;;;;;;5079463;28;45519;-79
2024/02/15 01:14:02;;;;;;;;;4.33;4.00;;;;;;;;5081059;27;45325;-78
2024/02/15 01:16:27;;;;;;;;;5.00;3.00;;;;;;;;5080792;27;45531;-79
2024/02/15 01:18:52;;;;;;;;;5.67;4.67;;;;;;;;5069111;27;45338;-77
2024/02/15 01:21:19;;;;;;;;;6.67;5.33;;;;;;;;5060229;28;45252;-79
2024/02/15 01:23:44;;;;;;;;;5.00;4.00;;;;;;;;5059981;28;45393;-78
2024/02/15 01:26:12;;;;;;;;;3.67;3.33;;;;;;;;5059087;28;45426;-78
2024/02/15 01:28:37;;;;;;;;;3.33;3.00;;;;;;;;5060388;28;45374;-77
2024/02/15 01:31:02;;;;;;;;;3.00;3.00;;;;;;;;5060209;28;45316;-78
2024/02/15 01:33:27;;;;;;;;;5.33;5.00;;;;;;;;5060427;28;45275;-78
2024/02/15 01:35:53;;;;;;;;;2.33;2.33;;;;;;;;5060187;28;45414;-78
2024/02/15 01:38:18;;;;;;;;;5.33;3.00;;;;;;;;5060260;28;45459;-78
2024/02/15 01:40:43;;;;;;;;;3.33;3.00;;;;;;;;5059291;28;45210;-78
2024/02/15 01:43:09;;;;;;;;;3.00;3.00;;;;;;;;5058107;28;45317;-78
2024/02/15 01:45:34;;;;;;;;;4.33;3.33;;;;;;;;5057399;28;45552;-78
2024/02/15 01:47:59;;;;;;;;;3.00;3.00;;;;;;;;5059920;28;45347;-79
2024/02/15 01:50:25;;;;;;;;;4.67;3.67;;;;;;;;5059162;28;45255;-78
2024/02/15 01:52:52;;;;;;;;;4.00;3.00;;;;;;;;5057281;28;45438;-79
2024/02/15 01:55:18;;;;;;;;;3.67;3.67;;;;;;;;5059482;28;46328;-79
2024/02/15 01:57:45;;;;;;;;;3.33;3.00;;;;;;;;5069298;28;47184;-78
2024/02/15 02:00:12;;;;;;;;;4.67;3.00;;;;;;;;5080159;27;45399;-79
2024/02/15 02:02:39;;;;;;;;;7.00;5.00;;;;;;;;5080369;27;45303;-79
2024/02/15 02:05:05;;;;;;;;;4.00;4.00;;;;;;;;5079953;27;45478;-78
2024/02/15 02:07:30;;;;;;;;;6.00;4.00;;;;;;;;5079827;27;46420;-79
2024/02/15 02:09:56;;;;;;;;;4.00;4.00;;;;;;;;5080059;27;45330;-78
2024/02/15 02:12:22;;;;;;;;;3.00;3.00;;;;;;;;5078213;27;45287;-79
2024/02/15 02:14:47;;;;;;;;;4.33;3.67;;;;;;;;5059717;28;45300;-78
2024/02/15 02:17:13;;;;;;;;;6.67;4.33;;;;;;;;5059505;28;46285;-78
2024/02/15 02:19:38;;;;;;;;;3.67;3.67;;;;;;;;5057890;28;45475;-78
2024/02/15 02:22:05;;;;;;;;;4.33;3.00;;;;;;;;5058286;28;45327;-78
2024/02/15 02:24:37;;;;;;;;;4.00;4.00;;;;;;;;5058118;28;46388;-79
2024/02/15 02:27:03;;;;;;;;;2.33;2.33;;;;;;;;5059100;28;45990;-78
2024/02/15 02:29:30;;;;;;;;;3.00;3.00;;;;;;;;5059569;28;45703;-78
2024/02/15 02:31:56;;;;;;;;;4.00;4.00;;;;;;;;5058138;28;45551;-79
2024/02/15 02:34:21;;;;;;;;;3.67;3.33;;;;;;;;5059286;28;45396;-77
2024/02/15 02:36:47;;;;;;;;;4.33;4.00;;;;;;;;5059282;28;46546;-77
2024/02/15 02:39:13;;;;;;;;;1.00;1.00;;;;;;;;5059474;28;45397;-78
2024/02/15 02:41:38;;;;;;;;;5.00;3.33;;;;;;;;5057588;28;45352;-78
2024/02/15 02:44:03;;;;;;;;;2.00;2.00;;;;;;;;5057911;28;45863;-78
2024/02/15 02:46:28;;;;;;;;;3.00;2.33;;;;;;;;5059234;28;45239;-78
2024/02/15 02:48:53;;;;;;;;;3.00;3.00;;;;;;;;5058928;28;45480;-77
2024/02/15 02:51:19;;;;;;;;;4.33;4.00;;;;;;;;5059014;28;45307;-77
2024/02/15 02:53:44;;;;;;;;;4.00;4.00;;;;;;;;5059957;28;45465;-79
2024/02/15 02:56:09;;;;;;;;;4.33;2.67;;;;;;;;5060845;28;48432;-78
2024/02/15 02:58:35;;;;;;;;;2.00;2.00;;;;;;;;5079213;28;45859;-77
2024/02/15 03:01:00;;;;;;;;;2.67;2.67;;;;;;;;5083107;27;45165;-78
2024/02/15 03:03:25;;;;;;;;;3.00;3.00;;;;;;;;5082942;27;45329;-78
2024/02/15 03:05:50;;;;;;;;;4.00;4.00;;;;;;;;5082975;27;45234;-78
2024/02/15 03:08:17;;;;;;;;;2.67;2.33;;;;;;;;5081587;28;45228;-77
2024/02/15 03:10:42;;;;;;;;;3.00;2.67;;;;;;;;5082897;27;45286;-78
2024/02/15 03:13:08;;;;;;;;;4.00;4.00;;;;;;;;5081259;28;47055;-79
2024/02/15 03:15:34;;;;;;;;;3.33;3.33;;;;;;;;5082307;27;46067;-78
2024/02/15 03:17:59;;;;;;;;;2.67;2.67;;;;;;;;5081272;28;45354;-78
2024/02/15 03:20:25;;;;;;;;;3.00;3.00;;;;;;;;5082761;27;45360;-78
2024/02/15 03:22:51;;;;;;;;;2.67;2.67;;;;;;;;5070347;27;45349;-78
2024/02/15 03:25:16;;;;;;;;;3.00;3.00;;;;;;;;5061970;28;45997;-78
2024/02/15 03:27:41;;;;;;;;;3.00;2.00;;;;;;;;5061952;28;45288;-78
2024/02/15 03:30:07;;;;;;;;;2.67;1.67;;;;;;;;5062220;28;45223;-78
2024/02/15 03:32:32;;;;;;;;;4.33;2.67;;;;;;;;5060789;28;46477;-78
2024/02/15 03:34:57;;;;;;;;;2.00;2.00;;;;;;;;5061826;28;45467;-79
2024/02/15 03:37:22;;;;;;;;;4.67;4.00;;;;;;;;5061748;28;45445;-79
2024/02/15 03:39:48;;;;;;;;;4.00;2.33;;;;;;;;5062064;28;45296;-78
2024/02/15 03:42:13;;;;;;;;;2.00;1.67;;;;;;;;5060437;28;47111;-78
2024/02/15 03:44:38;;;;;;;;;3.00;3.00;;;;;;;;5061896;28;45462;-77
2024/02/15 03:47:05;;;;;;;;;2.00;2.00;;;;;;;;5062092;28;45319;-78
2024/02/15 03:49:31;;;;;;;;;3.00;3.00;;;;;;;;5060447;28;45238;-78
2024/02/15 03:51:59;;;;;;;;;2.33;2.33;;;;;;;;5060300;28;46183;-78
2024/02/15 03:54:24;;;;;;;;;3.00;3.00;;;;;;;;5060193;28;47473;-78
2024/02/15 03:56:52;;;;;;;;;3.00;3.00;;;;;;;;5064930;28;45315;-78
2024/02/15 03:59:21;;;;;;;;;3.67;3.00;;;;;;;;5081818;27;45498;-78
2024/02/15 04:01:47;;;;;;;;;2.33;2.33;;;;;;;;5081540;27;45358;-78
2024/02/15 04:04:13;;;;;;;;;3.67;2.00;;;;;;;;5081660;27;46079;-78
2024/02/15 04:06:38;;;;;;;;;3.67;3.67;;;;;;;;5082008;27;45230;-78
2024/02/15 04:09:04;;;;;;;;;2.33;2.33;;;;;;;;5080783;28;45426;-78
2024/02/15 04:11:29;;;;;;;;;4.00;3.00;;;;;;;;5081561;27;45615;-78
2024/02/15 04:13:57;;;;;;;;;4.00;4.00;;;;;;;;5078659;28;47171;-78
2024/02/15 04:16:22;;;;;;;;;3.00;3.00;;;;;;;;5080198;27;45405;-77
2024/02/15 04:18:47;;;;;;;;;4.00;3.00;;;;;;;;5080193;27;45322;-78
2024/02/15 04:21:13;;;;;;;;;3.00;2.33;;;;;;;;5080022;27;45412;-78
2024/02/15 04:23:39;;;;;;;;;5.00;4.00;;;;;;;;5079933;27;46423;-78
2024/02/15 04:26:04;;;;;;;;;3.00;3.00;;;;;;;;5080017;27;45387;-77
2024/02/15 04:28:29;;;;;;;;;4.00;4.00;;;;;;;;5081180;27;45339;-79
2024/02/15 04:30:55;;;;;;;;;5.33;3.67;;;;;;;;5081512;27;45329;-78
2024/02/15 04:33:20;;;;;;;;;4.00;3.00;;;;;;;;5081358;28;45847;-79
2024/02/15 04:35:46;;;;;;;;;4.00;4.00;;;;;;;;5081252;27;45300;-78
2024/02/15 04:38:11;;;;;;;;;4.00;4.00;;;;;;;;5081623;27;45369;-78
2024/02/15 04:40:38;;;;;;;;;4.00;3.00;;;;;;;;5080011;28;47404;-78
2024/02/15 04:43:04;;;;;;;;;4.33;4.33;;;;;;;;5081275;27;45310;-77
2024/02/15 04:45:30;;;;;;;;;4.33;4.00;;;;;;;;5081238;27;45287;-78
2024/02/15 04:47:57;;;;;;;;;3.00;3.00;;;;;;;;5081429;27;45325;-78
2024/02/15 04:50:22;;;;;;;;;3.67;3.00;;;;;;;;5079491;28;47237;-78
2024/02/15 04:52:48;;;;;;;;;2.33;2.33;;;;;;;;5079403;28;48356;-78
2024/02/15 04:55:15;;;;;;;;;3.00;3.00;;;;;;;;5081005;27;45356;-78
2024/02/15 04:57:40;;;;;;;;;5.33;4.00;;;;;;;;5070656;27;45181;-78
2024/02/15 05:00:10;;;;;;;;;4.00;3.67;;;;;;;;5060848;28;45259;-77
2024/02/15 05:02:40;;;;;;;;;3.67;3.00;;;;;;;;5060830;28;45376;-78
2024/02/15 05:05:05;;;;;;;;;5.00;2.67;;;;;;;;5060612;28;45295;-77
2024/02/15 05:07:31;;;;;;;;;1.33;1.33;;;;;;;;5060796;28;45390;-79
2024/02/15 05:09:56;;;;;;;;;3.67;3.67;;;;;;;;5059351;28;46957;-78
2024/02/15 05:12:24;;;;;;;;;3.00;2.33;;;;;;;;5060407;28;45463;-78
2024/02/15 05:14:50;;;;;;;;;4.67;4.00;;;;;;;;5060384;28;45429;-78
2024/02/15 05:17:15;;;;;;;;;3.00;2.67;;;;;;;;5058186;28;45425;-78
2024/02/15 05:19:40;;;;;;;;;2.00;2.00;;;;;;;;5059219;28;45493;-78
2024/02/15 05:22:06;;;;;;;;;5.00;4.00;;;;;;;;5059904;28;45522;-79
2024/02/15 05:24:34;;;;;;;;;3.00;3.00;;;;;;;;5060334;28;45334;-78
2024/02/15 05:26:59;;;;;;;;;4.67;4.67;;;;;;;;5060248;28;45243;-78
2024/02/15 05:29:24;;;;;;;;;5.00;5.00;;;;;;;;5060257;28;45606;-78
2024/02/15 05:31:51;;;;;;;;;3.00;3.00;;;;;;;;5060328;28;45215;-79
2024/02/15 05:34:16;;;;;;;;;3.00;3.00;;;;;;;;5060175;28;45252;-78
2024/02/15 05:36:42;;;;;;;;;4.00;4.00;;;;;;;;5060498;28;45440;-78
2024/02/15 05:39:07;;;;;;;;;4.33;4.33;;;;;;;;5058837;28;46493;-78
2024/02/15 05:41:32;;;;;;;;;3.67;3.00;;;;;;;;5059656;28;45229;-78
2024/02/15 05:43:58;;;;;;;;;7.00;6.00;;;;;;;;5060202;28;45698;-77
2024/02/15 05:46:23;;;;;;;;;5.00;5.00;;;;;;;;5058836;28;45221;-78
2024/02/15 05:48:48;;;;;;;;;5.33;5.00;;;;;;;;5058697;28;47360;-78
2024/02/15 05:51:14;;;;;;;;;4.00;4.00;;;;;;;;5059647;28;45877;-78
2024/02/15 05:53:40;;;;;;;;;7.67;5.67;;;;;;;;5059607;28;45311;-78
2024/02/15 05:56:07;;;;;;;;;6.00;5.67;;;;;;;;5059957;28;45423;-79
2024/02/15 05:58:32;;;;;;;;;6.67;6.00;;;;;;;;5075793;28;46296;-78
2024/02/15 06:01:01;;;;;;;;;5.33;5.00;;;;;;;;5078934;27;46404;-79
2024/02/15 06:03:29;;;;;;;;;5.00;5.00;;;;;;;;5079926;27;45156;-78
2024/02/15 06:05:58;;;;;;;;;5.00;5.00;;;;;;;;5080125;28;45236;-78
2024/02/15 06:08:24;;;;;;;;;5.00;5.00;;;;;;;;5080076;27;45438;-78
2024/02/15 06:10:50;;;;;;;;;1.00;1.00;;;;;;;;5079882;27;45356;-78
2024/02/15 06:13:15;;;;;;;;;4.67;4.33;;;;;;;;5080009;27;45161;-78
2024/02/15 06:15:40;;;;;;;;;4.00;4.00;;;;;;;;5080033;27;45136;-79
2024/02/15 06:18:08;;;;;;;;;6.33;6.33;;;;;;;;5079770;28;45260;-78
2024/02/15 06:20:34;;;;;;;;;1.00;0.33;;;;;;;;5079692;27;46144;-78
2024/02/15 06:22:59;;;;;;;;;6.67;6.67;;;;;;;;5078268;28;45394;-78
2024/02/15 06:25:24;;;;;;;;;6.33;6.00;;;;;;;;5079739;27;45450;-78
2024/02/15 06:27:58;;;;;;;;;6.00;6.00;;;;;;;;5079872;27;45410;-77
2024/02/15 06:39:38;;;;;;;;;5.00;5.00;;;;;;;;5079607;28;45306;-78
2024/02/15 06:41:33;;;;;;;;;5.00;5.00;;;;;;;;5079055;28;45524;-79
2024/02/15 06:43:58;;;;;;;;;6.00;6.00;;;;;;;;5078350;28;45558;-78
2024/02/15 06:46:24;;;;;;;;;3.00;3.00;;;;;;;;5078396;28;45508;-79
2024/02/15 06:48:49;;;;;;;;;4.00;4.00;;;;;;;;5077982;28;46830;-77
2024/02/15 06:51:15;;;;;;;;;5.67;5.67;;;;;;;;5079112;27;46408;-77
2024/02/15 06:53:40;;;;;;;;;4.67;4.33;;;;;;;;5065909;28;45523;-79
2024/02/15 06:56:08;;;;;;;;;10.00;6.33;;;;;;;;5057120;28;45393;-78
2024/02/15 06:58:33;;;;;;;;;4.67;4.67;;;;;;;;5059685;28;46307;-78
2024/02/15 07:00:59;;;;;;;;;6.67;5.33;;;;;;;;5058721;28;45424;-79
2024/02/15 07:03:24;;;;;;;;;5.67;5.00;;;;;;;;5059066;28;45315;-79
2024/02/15 07:05:50;;;;;;;;;3.67;3.67;;;;;;;;5057860;28;45984;-80
2024/02/15 07:08:15;;;;;;;;;6.00;6.00;;;;;;;;5056467;28;46455;-80
2024/02/15 07:10:40;;;;;;;;;4.67;4.67;;;;;;;;5057757;28;47189;-79
2024/02/15 07:13:06;;;;;;;;;4.33;4.00;;;;;;;;5059046;28;45262;-80
2024/02/15 07:15:33;;;;;;;;;4.67;4.67;;;;;;;;5059313;28;45274;-80
2024/02/15 07:17:58;;;;;;;;;4.00;4.00;;;;;;;;5058701;28;45548;-79
2024/02/15 07:20:24;;;;;;;;;7.67;6.67;;;;;;;;5058707;28;45377;-80
2024/02/15 07:22:49;;;;;;;;;6.00;6.00;;;;;;;;5058087;28;45374;-78
2024/02/15 07:25:14;;;;;;;;;5.00;5.00;;;;;;;;5058519;28;45220;-78
2024/02/15 07:27:39;;;;;;;;;7.00;7.00;;;;;;;;5057561;28;46946;-78
2024/02/15 07:30:05;;;;;;;;;9.67;7.00;;;;;;;;5059013;28;45385;-78
2024/02/15 07:32:31;;;;;;;;;6.33;6.33;;;;;;;;5057104;28;45475;-79
2024/02/15 07:34:56;;;;;;;;;9.33;8.00;;;;;;;;5059038;28;45438;-78
2024/02/15 07:37:25;;;;;;;;;7.33;7.33;;;;;;;;5058743;28;45263;-79
2024/02/15 07:39:51;;;;;;;;;4.00;4.00;;;;;;;;5057711;28;47269;-79
2024/02/15 07:42:16;;;;;;;;;4.33;4.00;;;;;;;;5060794;28;45269;-78
2024/02/15 07:44:42;;;;;;;;;2.33;2.33;;;;;;;;5061019;28;45380;-79
2024/02/15 07:47:10;;;;;;;;;3.33;3.33;;;;;;;;5059864;28;45989;-80
2024/02/15 07:49:38;;;;;;;;;5.00;5.00;;;;;;;;5060902;28;45541;-79
2024/02/15 07:52:04;;;;;;;;;4.00;4.00;;;;;;;;5060758;28;45430;-80
2024/02/15 07:54:30;;;;;;;;;3.00;3.00;;;;;;;;5061639;28;45192;-79
2024/02/15 07:56:55;;;;;;;;;2.33;2.33;;;;;;;;5062543;28;45603;-79
2024/02/15 07:59:22;;;;;;;;;3.00;3.00;;;;;;;;5061159;28;46485;-79
2024/02/15 08:01:49;;;;;;;;;4.33;4.00;;;;;;;;5061238;28;45373;-79
2024/02/15 08:04:15;;;;;;;;;5.33;5.33;;;;;;;;5060425;28;45280;-78
2024/02/15 08:06:41;;;;;;;;;4.33;4.33;;;;;;;;5060004;28;46392;-79
2024/02/15 08:09:06;;;;;;;;;5.00;5.00;;;;;;;;5060663;28;45556;-78
2024/02/15 08:11:32;;;;;;;;;2.00;2.00;;;;;;;;5057922;28;45511;-78
2024/02/15 08:13:59;;;;;;;;;4.00;3.33;;;;;;;;5058016;28;45339;-78
2024/02/15 08:16:27;;;;;;;;;6.33;5.00;;;;;;;;5059789;28;45466;-78
2024/02/15 08:18:54;;;;;;;;;4.00;4.00;;;;;;;;5059128;28;47410;-78
2024/02/15 08:21:25;;;;;;;;;4.00;4.00;;;;;;;;5060624;28;45370;-78
2024/02/15 08:23:50;;;;;;;;;5.00;3.00;;;;;;;;5059422;28;45312;-79
2024/02/15 08:26:16;;;;;;;;;3.00;3.00;;;;;;;;5060367;28;45589;-79
2024/02/15 08:28:42;;;;;;;;;4.00;4.00;;;;;;;;5059008;28;46988;-79
2024/02/15 08:31:08;;;;;;;;;3.67;3.67;;;;;;;;5060479;28;45439;-79
2024/02/15 08:33:33;;;;;;;;;4.67;4.67;;;;;;;;5060468;28;45215;-78
2024/02/15 08:35:58;;;;;;;;;5.00;5.00;;;;;;;;5059205;28;45864;-79
2024/02/15 08:38:23;;;;;;;;;3.33;3.33;;;;;;;;5059558;28;45900;-78
2024/02/15 08:40:49;;;;;;;;;3.67;3.00;;;;;;;;5060442;28;45357;-78
2024/02/15 08:43:15;;;;;;;;;3.33;3.33;;;;;;;;5060880;28;45468;-79
2024/02/15 08:45:41;;;;;;;;;6.00;5.00;;;;;;;;5060853;28;45358;-80
2024/02/15 08:48:06;;;;;;;;;5.00;4.00;;;;;;;;5060898;28;46005;-80
2024/02/15 08:50:32;;;;;;;;;4.33;4.33;;;;;;;;5059213;28;45358;-80
2024/02/15 08:52:57;;;;;;;;;4.00;4.00;;;;;;;;5060631;28;45387;-78
2024/02/15 08:55:26;;;;;;;;;1.67;1.67;;;;;;;;5061793;28;45318;-79
2024/02/15 08:57:52;;;;;;;;;6.00;4.00;;;;;;;;5067001;28;45505;-79
2024/02/15 09:00:17;;;;;;;;;4.67;4.67;;;;;;;;5056374;28;45390;-80
2024/02/15 09:02:46;;;;;;;;;5.00;5.00;;;;;;;;5058815;28;45426;-80
2024/02/15 09:05:14;;;;;;;;;5.00;5.00;;;;;;;;5058680;28;46266;-80
2024/02/15 09:07:43;;;;;;;;;5.33;4.00;;;;;;;;5058838;28;45321;-80
2024/02/15 09:10:10;;;;;;;;;5.00;4.00;;;;;;;;5059093;28;45314;-80
2024/02/15 09:12:39;;;;;;;;;4.33;4.00;;;;;;;;5059120;28;45545;-79
2024/02/15 09:15:05;;;;;;;;;3.33;3.33;;;;;;;;5058937;28;45560;-80
2024/02/15 09:17:32;;;;;;;;;4.00;4.00;;;;;;;;5059282;28;45354;-80
2024/02/15 09:19:57;;;;;;;;;5.00;4.00;;;;;;;;5059360;28;45330;-79
2024/02/15 09:22:23;;;;;;;;;4.00;4.00;;;;;;;;5058226;28;45322;-76
2024/02/15 09:24:48;;;;;;;;;3.33;3.33;;;;;;;;5059142;28;45322;-78
2024/02/15 09:27:13;;;;;;;;;3.00;3.00;;;;;;;;5060092;28;46302;-77
2024/02/15 09:29:40;;;;;;;;;3.33;3.33;;;;;;;;5059150;28;45405;-77
2024/02/15 09:32:05;;;;;;;;;4.67;4.67;;;;;;;;5060475;28;45370;-76
2024/02/15 09:34:30;;;;;;;;;4.00;4.00;;;;;;;;5059930;28;45421;-78
2024/02/15 09:36:56;;;;;;;;;4.67;4.00;;;;;;;;5060417;28;45426;-78
2024/02/15 09:39:22;;;;;;;;;2.00;2.00;;;;;;;;5060055;28;45372;-78
2024/02/15 09:41:53;;;;;;;;;3.67;3.67;;;;;;;;5058479;28;45327;-77
2024/02/15 09:44:18;;;;;;;;;4.00;4.00;;;;;;;;5061355;28;45453;-78
2024/02/15 09:46:47;;;;;;;;;1.67;1.67;;;;;;;;5072817;28;45994;-77
2024/02/15 09:49:13;;;;;;;;;5.00;5.00;;;;;;;;5072819;28;45338;-77
2024/02/15 09:51:39;;;;;;;;;2.33;2.33;;;;;;;;5071600;28;45377;-77
2024/02/15 09:54:05;;;;;;;;;4.33;3.67;;;;;;;;5071286;28;45777;-78
2024/02/15 09:56:32;;;;;;;;;17.67;17.67;;;;;;;;5061276;28;46974;-78
2024/02/15 09:58:59;;;;;;;;;20.67;20.67;;;;;;;;5079783;27;45294;-78
2024/02/15 10:01:25;;;;;;;;;6.00;6.00;;;;;;;;5093098;27;45385;-78
2024/02/15 10:03:53;;;;;;;;;4.00;4.00;;;;;;;;5078094;27;45370;-80
2024/02/15 10:06:19;;;;;;;;;3.67;2.67;;;;;;;;5079517;28;48326;-77
2024/02/15 10:08:44;;;;;;;;;2.33;2.33;;;;;;;;5059198;28;45410;-78
2024/02/15 10:11:10;;;;;;;;;1.33;1.33;;;;;;;;5059040;28;45287;-79
2024/02/15 10:13:36;;;;;;;;;3.67;3.00;;;;;;;;5058949;28;45459;-79
2024/02/15 10:16:13;;;;;;;;;3.00;3.00;;;;;;;;5058310;28;46988;-78
2024/02/15 10:18:39;;;;;;;;;2.33;2.33;;;;;;;;5059369;28;45374;-79
2024/02/15 10:21:04;;;;;;;;;2.67;2.67;;;;;;;;5059797;28;45323;-81
2024/02/15 10:23:29;;;;;;;;;3.00;3.00;;;;;;;;5059153;28;45470;-79
2024/02/15 10:25:56;;;;;;;;;2.00;2.00;;;;;;;;5057976;28;45428;-81
2024/02/15 10:28:23;;;;;;;;;2.00;2.00;;;;;;;;5052698;28;45307;-80
2024/02/15 10:30:50;;;;;;;;;5.00;3.00;;;;;;;;5055660;28;45515;-80
2024/02/15 10:33:22;;;;;;;;;3.75;3.75;;;;;;;;5058160;28;46480;-79
2024/02/15 10:35:47;;;;;;;;;3.00;3.00;;;;;;;;5059182;28;48172;-79
2024/02/15 10:38:15;;;;;;;;;4.67;4.67;;;;;;;;5058518;28;46429;-80
2024/02/15 10:40:42;;;;;;;;;3.00;2.33;;;;;;;;5058744;28;46848;-79
2024/02/15 10:43:08;;;;;;;;;3.00;3.00;;;;;;;;5058926;28;45441;-79
2024/02/15 10:45:34;;;;;;;;;2.00;2.00;;;;;;;;5058220;28;47400;-79
2024/02/15 10:47:59;;;;;;;;;4.00;4.00;;;;;;;;5059395;28;45370;-79
2024/02/15 10:50:25;;;;;;;;;3.00;3.00;;;;;;;;5058949;28;45299;-79
2024/02/15 10:52:57;;;;;;;;;2.00;2.00;;;;;;;;5059145;28;45395;-79
2024/02/15 10:55:25;;;;;;;;;2.00;2.00;;;;;;;;5038855;28;45476;-79
2024/02/15 10:57:51;;;;;;;;;3.67;3.00;;;;;;;;5063717;28;45391;-80
2024/02/15 11:00:25;;;;;;;;;4.00;4.00;;;;;;;;5078451;28;45248;-82
2024/02/15 11:03:01;;;;;;;;;3.00;2.67;;;;;;;;5078934;27;45450;-82
2024/02/15 11:05:27;;;;;;;;;3.00;3.00;;;;;;;;5078805;27;45302;-83
2024/02/15 11:07:55;;;;;;;;;3.00;3.00;;;;;;;;5079655;27;45377;-81
2024/02/15 11:10:20;;;;;;;;;4.00;4.00;;;;;;;;5079117;27;45298;-83
2024/02/15 11:12:47;;;;;;;;;5.00;3.00;;;;;;;;5079257;28;45262;-79
2024/02/15 11:15:33;;;;;;;;;2.00;2.00;;;;;;;;5080999;28;45319;-79
2024/02/15 11:17:58;;;;;;;;;4.00;3.33;;;;;;;;5083963;27;45168;-80
2024/02/15 11:20:45;;;;;;;;;1.50;1.50;;;;;;;;5082934;27;45384;-80
2024/02/15 11:23:10;;;;;;;;;3.33;3.00;;;;;;;;5082155;27;45375;-80
2024/02/15 11:25:41;;;;;;;;;2.33;2.33;;;;;;;;5080405;28;47209;-80
2024/02/15 11:28:27;;;;;;;;;4.33;4.33;;;;;;;;5082136;27;45231;-79
2024/02/15 11:30:56;;;;;;;;;2.75;2.75;;;;;;;;5083850;27;45231;-82
2024/02/15 11:33:31;;;;;;;;;2.67;2.67;;;;;;;;5083915;27;45366;-79
2024/02/15 11:36:05;;;;;;;;;3.75;3.75;;;;;;;;5082473;27;45497;-79
2024/02/15 11:38:30;;;;;;;;;3.00;3.00;;;;;;;;5082334;27;45400;-79
2024/02/15 11:40:55;;;;;;;;;2.00;2.00;;;;;;;;5064467;28;45349;-83
2024/02/15 11:43:43;;;;;;;;;2.00;2.00;;;;;;;;5059646;28;45847;-80
2024/02/15 11:46:10;;;;;;;;;3.75;1.75;;;;;;;;5058539;28;45510;-80
2024/02/15 11:48:38;;;;;;;;;2.75;2.75;;;;;;;;5055870;28;45922;-82
2024/02/15 11:51:06;;;;;;;;;3.00;2.00;;;;;;;;5058227;28;45327;-80
2024/02/15 11:53:31;;;;;;;;;3.00;3.00;;;;;;;;5061310;28;45652;-80
2024/02/15 11:55:59;;;;;;;;;2.00;2.00;;;;;;;;5060197;28;47165;-79
2024/02/15 11:58:30;;;;;;;;;6.50;5.00;;;;;;;;5065678;28;45252;-78
2024/02/15 12:20:11;;;;;;;;;5.67;3.67;;;;;;;;5057781;28;45542;-81
2024/02/15 12:22:41;;;;;;;;;3.75;2.00;;;;;;;;5050665;28;45396;-80
2024/02/15 12:25:13;;;;;;;;;4.00;4.00;;;;;;;;5059751;28;45302;-82
2024/02/15 12:27:39;;;;;;;;;4.00;4.00;;;;;;;;5057482;28;46500;-81
2024/02/15 12:30:08;;;;;;;;;3.00;3.00;;;;;;;;5060379;28;45370;-81
2024/02/15 12:32:33;;;;;;;;;6.00;5.00;;;;;;;;5060316;28;45390;-81
2024/02/15 12:35:19;;;;;;;;;102.67;102.33;;;;;;;;5060397;28;46074;-80
2024/02/15 12:38:01;;;;;;;;;4.00;3.00;;;;;;;;5058338;28;45733;-81
2024/02/15 12:40:30;;;;;;;;;3.75;3.00;;;;;;;;5057459;28;45314;-81
2024/02/15 12:42:55;;;;;;;;;5.50;3.25;;;;;;;;5055076;28;45505;-81
2024/02/15 12:45:21;;;;;;;;;4.25;3.00;;;;;;;;5059244;28;45377;-81
2024/02/15 12:47:53;;;;;;;;;6.00;5.00;;;;;;;;5059513;28;45346;-81
2024/02/15 12:50:21;;;;;;;;;5.00;5.00;;;;;;;;5057869;28;45406;-80
2024/02/15 12:52:49;;;;;;;;;4.00;3.00;;;;;;;;5058463;28;45380;-82
2024/02/15 12:55:16;;;;;;;;;3.50;3.50;;;;;;;;5057896;28;47314;-82
2024/02/15 12:57:44;;;;;;;;;4.00;4.00;;;;;;;;5059303;28;47579;-80
2024/02/15 13:00:19;;;;;;;;;2.75;2.25;;;;;;;;5060056;28;45404;-81
2024/02/15 13:02:45;;;;;;;;;4.00;3.75;;;;;;;;5059948;28;45264;-80
2024/02/15 13:05:11;;;;;;;;;3.00;3.00;;;;;;;;5058363;28;46383;-81
2024/02/15 13:07:38;;;;;;;;;5.25;5.25;;;;;;;;5059195;28;45920;-79
2024/02/15 13:10:06;;;;;;;;;4.67;4.33;;;;;;;;5058817;28;45324;-80
2024/02/15 13:12:34;;;;;;;;;3.00;3.00;;;;;;;;5060241;28;45401;-80
2024/02/15 13:14:59;;;;;;;;;4.75;4.00;;;;;;;;5057942;28;46604;-80
2024/02/15 13:17:26;;;;;;;;;4.50;4.50;;;;;;;;5059552;28;46278;-81
2024/02/15 13:19:51;;;;;;;;;3.75;3.75;;;;;;;;5060158;28;45329;-80
2024/02/15 13:22:18;;;;;;;;;2.67;2.67;;;;;;;;5059488;28;45261;-80
2024/02/15 13:24:44;;;;;;;;;4.25;3.00;;;;;;;;5059820;28;45481;-80
2024/02/15 13:27:11;;;;;;;;;3.00;3.00;;;;;;;;5059957;28;45284;-80
2024/02/15 13:29:37;;;;;;;;;3.00;3.00;;;;;;;;5059646;28;45152;-80
2024/02/15 13:32:02;;;;;;;;;3.50;2.00;;;;;;;;5059468;28;45315;-79
2024/02/15 13:34:27;;;;;;;;;4.25;4.25;;;;;;;;5059450;28;45479;-79
2024/02/15 13:36:54;;;;;;;;;2.75;2.75;;;;;;;;5059169;28;45402;-79
2024/02/15 13:39:21;;;;;;;;;6.00;6.00;;;;;;;;5059433;28;45398;-80
2024/02/15 13:41:47;;;;;;;;;4.00;4.00;;;;;;;;5059838;28;45307;-80
2024/02/15 13:44:12;;;;;;;;;5.25;3.75;;;;;;;;5051946;28;45649;-80
2024/02/15 13:46:39;;;;;;;;;2.25;2.25;;;;;;;;5058228;28;45452;-79
2024/02/15 13:49:04;;;;;;;;;4.25;4.25;;;;;;;;5055921;28;45263;-80
2024/02/15 13:51:29;;;;;;;;;4.00;4.00;;;;;;;;5061081;28;45240;-79
2024/02/15 13:53:56;;;;;;;;;4.00;4.00;;;;;;;;5065643;28;45325;-79
2024/02/15 13:56:21;;;;;;;;;3.25;3.25;;;;;;;;5063590;28;45292;-79
2024/02/15 13:58:47;;;;;;;;;4.25;4.25;;;;;;;;5061310;28;45306;-79
2024/02/15 14:01:14;;;;;;;;;4.00;4.00;;;;;;;;5059058;28;45437;-79
2024/02/15 14:03:39;;;;;;;;;4.00;4.00;;;;;;;;5058495;28;46325;-80
2024/02/15 14:06:05;;;;;;;;;5.75;5.00;;;;;;;;5059044;28;46113;-81
2024/02/15 14:08:30;;;;;;;;;4.50;3.50;;;;;;;;5058089;28;45337;-80
2024/02/15 14:10:55;;;;;;;;;4.00;4.00;;;;;;;;5060009;28;45575;-79
2024/02/15 14:13:22;;;;;;;;;2.75;2.75;;;;;;;;5059477;28;45673;-80
2024/02/15 14:15:47;;;;;;;;;5.75;5.75;;;;;;;;5059454;28;46036;-79
2024/02/15 14:18:13;;;;;;;;;5.00;5.00;;;;;;;;5058856;28;45676;-79
2024/02/15 14:20:39;;;;;;;;;5.00;5.00;;;;;;;;5054497;28;45585;-82
2024/02/15 14:23:13;;;;;;;;;3.00;3.00;;;;;;;;5057492;28;46259;-82
2024/02/15 14:25:39;;;;;;;;;4.75;4.75;;;;;;;;5065801;28;46054;-79
2024/02/15 14:28:07;;;;;;;;;4.75;3.75;;;;;;;;5057605;28;45277;-82
2024/02/15 14:33:19;;;;;;;;;4.00;4.00;;;;;;;;5056901;28;45264;-80
2024/02/15 14:35:44;;;;;;;;;4.00;4.00;;;;;;;;5058712;28;47481;-79
2024/02/15 14:38:13;;;;;;;;;5.00;5.00;;;;;;;;5057387;28;45488;-79
2024/02/15 14:40:39;;;;;;;;;4.50;4.25;;;;;;;;5059511;28;45276;-82
2024/02/15 14:43:05;;;;;;;;;5.00;4.75;;;;;;;;5059007;28;46121;-79
2024/02/15 14:45:34;;;;;;;;;3.25;2.75;;;;;;;;5068059;28;47211;-79
2024/02/15 14:47:59;;;;;;;;;9.25;6.75;;;;;;;;5066866;28;45774;-79
2024/02/15 14:50:25;;;;;;;;;6.00;5.00;;;;;;;;5062891;28;45557;-78
2024/02/15 14:52:51;;;;;;;;;12.25;11.25;;;;;;;;5072608;28;45304;-77
2024/02/15 14:55:17;;;;;;;;;5.00;5.00;;;;;;;;5066525;28;47208;-80
2024/02/15 14:57:45;;;;;;;;;4.75;4.75;;;;;;;;5076203;28;45245;-80
2024/02/15 15:00:14;;;;;;;;;4.25;4.25;;;;;;;;5073586;28;45473;-80
2024/02/15 15:02:42;;;;;;;;;6.25;5.75;;;;;;;;5062837;28;45515;-80
2024/02/15 15:13:21;;;;;;;;;4.75;4.75;;;;;;;;5064189;28;45439;-82
2024/02/15 15:15:47;;;;;;;;;6.00;6.00;;;;;;;;5068317;28;47377;-81
2024/02/15 15:18:13;;;;;;;;;6.00;6.00;;;;;;;;5065334;28;45347;-80